createdAt,value
2022-10-11T00:01:06.166Z,5.23
2022-10-11T00:03:34.598Z,5.21
2022-10-11T00:06:05.747Z,5.27
2022-10-11T00:08:34.720Z,5.21
2022-10-11T00:11:07.437Z,5.18
2022-10-11T00:13:56.770Z,5.15
2022-10-11T00:16:38.629Z,5.15
2022-10-11T00:19:21.799Z,5.27
2022-10-11T00:22:02.772Z,5.23
2022-10-11T00:24:42.494Z,5.39
2022-10-11T00:27:24.206Z,5.24
2022-10-11T00:30:09.196Z,5.08
2022-10-11T00:32:50.400Z,4.95
2022-10-11T00:35:33.202Z,4.82
2022-10-11T00:38:16.312Z,4.72
2022-10-11T00:40:57.212Z,4.64
2022-10-11T00:44:07.057Z,4.71
2022-10-11T00:46:55.698Z,4.65
2022-10-11T00:49:39.190Z,4.63
2022-10-11T00:52:31.877Z,4.66
2022-10-11T00:55:17.879Z,4.63
2022-10-11T00:58:00.713Z,4.59
2022-10-11T01:00:41.648Z,4.35
2022-10-11T01:03:27.869Z,4.16
2022-10-11T01:06:11.306Z,4.16
2022-10-11T01:08:53.709Z,4.10
2022-10-11T01:11:38.677Z,4.19
2022-10-11T01:14:35.653Z,4.25
2022-10-11T01:17:24.715Z,4.39
2022-10-11T01:20:27.171Z,4.44
2022-10-11T01:23:44.076Z,4.29
2022-10-11T01:26:50.936Z,4.18
2022-10-11T01:29:46.194Z,4.22
2022-10-11T01:32:35.625Z,4.19
2022-10-11T01:35:25.769Z,4.13
2022-10-11T01:38:14.450Z,4.04
2022-10-11T01:41:01.002Z,3.82
2022-10-11T01:43:43.617Z,3.78
2022-10-11T01:46:25.265Z,3.78
2022-10-11T01:49:06.011Z,3.72
2022-10-11T01:51:53.720Z,3.61
2022-10-11T01:58:10.857Z,3.42
2022-10-11T02:00:59.781Z,3.41
2022-10-11T02:03:47.753Z,3.30
2022-10-11T02:06:35.380Z,3.41
2022-10-11T02:09:24.360Z,3.42
2022-10-11T02:12:10.321Z,3.38
2022-10-11T02:14:55.597Z,3.23
2022-10-11T02:17:40.794Z,3.19
2022-10-11T02:20:27.190Z,3.09
2022-10-11T02:23:14.318Z,3.02
2022-10-11T02:25:58.852Z,2.92
2022-10-11T02:28:45.452Z,2.86
2022-10-11T02:31:30.580Z,2.92
2022-10-11T02:34:19.557Z,3.12
2022-10-11T02:37:05.597Z,3.04
2022-10-11T02:39:55.724Z,2.97
2022-10-11T02:42:42.928Z,3.09
2022-10-11T02:45:35.562Z,2.96
2022-10-11T02:48:18.950Z,2.94
2022-10-11T02:50:59.464Z,3.11
2022-10-11T02:53:56.208Z,3.12
2022-10-11T02:56:36.818Z,3.13
2022-10-11T02:59:16.723Z,3.02
2022-10-11T03:01:58.583Z,3.00
2022-10-11T03:04:41.571Z,2.88
2022-10-11T03:07:22.592Z,2.84
2022-10-11T03:10:04.788Z,2.73
2022-10-11T03:12:47.504Z,2.82
2022-10-11T03:15:28.460Z,2.89
2022-10-11T03:18:11.694Z,2.82
2022-10-11T03:20:52.656Z,2.70
2022-10-11T03:23:34.484Z,2.67
2022-10-11T03:26:17.605Z,2.54
2022-10-11T03:29:00.457Z,2.49
2022-10-11T03:31:43.431Z,2.44
2022-10-11T03:34:24.461Z,2.44
2022-10-11T03:37:06.290Z,2.50
2022-10-11T03:40:01.162Z,2.46
2022-10-11T03:42:44.077Z,2.40
2022-10-11T03:45:25.013Z,2.35
2022-10-11T03:48:07.465Z,2.51
2022-10-11T03:50:50.470Z,2.66
2022-10-11T03:53:30.802Z,2.62
2022-10-11T03:56:12.708Z,2.57
2022-10-11T03:58:55.744Z,2.47
2022-10-11T04:01:38.787Z,2.68
2022-10-11T04:04:21.688Z,2.63
2022-10-11T04:07:04.591Z,2.55
2022-10-11T04:09:45.619Z,2.54
2022-10-11T04:12:27.437Z,2.47
2022-10-11T04:15:12.570Z,2.38
2022-10-11T04:17:56.642Z,2.23
2022-10-11T04:20:39.733Z,2.17
2022-10-11T04:23:22.632Z,2.10
2022-10-11T04:26:08.807Z,2.06
2022-10-11T04:28:49.885Z,2.05
2022-10-11T04:31:29.716Z,2.05
2022-10-11T04:34:11.464Z,2.07
2022-10-11T04:36:52.477Z,2.15
2022-10-11T04:39:32.233Z,2.21
2022-10-11T04:42:12.400Z,2.27
2022-10-11T04:44:55.441Z,2.27
2022-10-11T04:47:40.321Z,2.20
2022-10-11T04:50:23.073Z,2.22
2022-10-11T04:53:06.025Z,2.18
2022-10-11T04:55:58.742Z,2.14
2022-10-11T04:58:41.369Z,2.14
2022-10-11T05:01:23.181Z,2.08
2022-10-11T05:04:06.270Z,1.97
2022-10-11T05:06:49.054Z,2.08
2022-10-11T05:09:32.017Z,2.06
2022-10-11T05:12:15.086Z,2.22
2022-10-11T05:14:56.074Z,2.22
2022-10-11T05:17:37.954Z,2.15
2022-10-11T05:20:19.105Z,2.02
2022-10-11T05:23:00.845Z,2.11
2022-10-11T05:25:43.575Z,2.24
2022-10-11T05:28:26.874Z,2.39
2022-10-11T05:31:07.633Z,2.45
2022-10-11T05:33:49.595Z,2.27
2022-10-11T05:36:32.410Z,2.06
2022-10-11T05:39:13.434Z,1.90
2022-10-11T05:41:55.297Z,1.77
2022-10-11T05:44:38.262Z,1.76
2022-10-11T05:47:21.225Z,1.71
2022-10-11T05:50:02.262Z,1.83
2022-10-11T05:52:42.025Z,1.91
2022-10-11T05:55:23.993Z,1.98
2022-10-11T05:58:07.528Z,2.20
2022-10-11T06:00:47.800Z,2.27
2022-10-11T06:03:28.027Z,2.20
2022-10-11T06:06:09.276Z,2.23
2022-10-11T06:08:50.617Z,2.23
2022-10-11T06:11:32.285Z,2.29
2022-10-11T06:14:27.052Z,2.55
2022-10-11T06:17:24.814Z,2.54
2022-10-11T06:20:58.384Z,2.62
2022-10-11T06:24:00.765Z,2.68
2022-10-11T06:27:01.357Z,2.78
2022-10-11T06:30:33.064Z,2.93
2022-10-11T06:33:32.949Z,3.17
2022-10-11T06:36:42.055Z,3.38
2022-10-11T06:39:41.866Z,3.59
2022-10-11T06:42:37.311Z,4.36
2022-10-11T06:45:36.909Z,5.57
2022-10-11T06:48:39.955Z,6.55
2022-10-11T06:51:36.913Z,7.50
2022-10-11T06:54:34.145Z,8.24
2022-10-11T06:57:31.563Z,9.06
2022-10-11T07:00:29.525Z,9.87
2022-10-11T07:03:29.318Z,10.40
2022-10-11T07:06:24.899Z,11.26
2022-10-11T07:09:23.036Z,11.41
2022-10-11T07:12:20.821Z,11.50
2022-10-11T07:15:14.815Z,12.34
2022-10-11T07:18:13.753Z,12.69
2022-10-11T07:21:11.687Z,13.08
2022-10-11T07:24:11.035Z,12.63
2022-10-11T07:27:18.768Z,12.70
2022-10-11T07:30:23.941Z,13.02
2022-10-11T07:33:20.435Z,12.64
2022-10-11T07:36:27.097Z,12.54
2022-10-11T07:39:25.929Z,12.92
2022-10-11T07:42:23.149Z,12.87
2022-10-11T07:45:28.862Z,13.06
2022-10-11T07:48:24.961Z,13.58
2022-10-11T07:51:30.552Z,14.45
2022-10-11T07:54:29.067Z,15.53
2022-10-11T07:57:25.985Z,16.10
2022-10-11T08:00:26.488Z,16.61
2022-10-11T08:03:21.182Z,17.59
2022-10-11T08:06:17.225Z,18.14
2022-10-11T08:09:14.660Z,17.96
2022-10-11T08:12:08.772Z,17.79
2022-10-11T08:15:05.493Z,18.15
2022-10-11T08:18:06.402Z,18.98
2022-10-11T08:21:07.170Z,19.46
2022-10-11T08:24:06.560Z,20.03
2022-10-11T08:27:02.465Z,20.76
2022-10-11T08:29:59.873Z,20.87
2022-10-11T08:32:53.507Z,20.81
2022-10-11T08:35:58.833Z,21.13
2022-10-11T08:38:55.221Z,21.55
2022-10-11T08:41:56.256Z,21.13
2022-10-11T08:45:10.963Z,22.84
2022-10-11T08:48:26.329Z,22.13
2022-10-11T08:51:26.412Z,22.19
2022-10-11T08:54:34.330Z,22.67
2022-10-11T08:57:34.466Z,23.02
2022-10-11T09:00:33.033Z,22.32
2022-10-11T09:03:28.011Z,22.67
2022-10-11T09:06:22.130Z,23.59
2022-10-11T09:09:14.736Z,23.49
2022-10-11T09:12:11.372Z,23.22
2022-10-11T09:15:12.921Z,24.59
2022-10-11T09:18:09.549Z,24.75
2022-10-11T09:21:08.163Z,24.92
2022-10-11T09:24:20.042Z,22.77
2022-10-11T09:26:55.904Z,24.55
2022-10-11T09:29:40.889Z,24.18
2022-10-11T09:32:14.777Z,24.29
2022-10-11T09:34:43.340Z,24.84
2022-10-11T09:37:21.073Z,25.17
2022-10-11T09:39:54.501Z,25.32
2022-10-11T09:42:22.937Z,25.73
2022-10-11T09:44:52.673Z,23.45
2022-10-11T09:47:24.708Z,22.00
2022-10-11T09:50:00.132Z,19.75
2022-10-11T09:52:28.556Z,19.00
2022-10-11T09:55:00.486Z,18.20
2022-10-11T09:57:30.908Z,19.20
2022-10-11T10:00:01.874Z,18.52
2022-10-11T10:02:42.567Z,18.22
2022-10-11T10:05:18.039Z,20.08
2022-10-11T10:08:08.048Z,20.20
2022-10-11T10:10:41.430Z,19.61
2022-10-11T10:13:21.970Z,21.35
2022-10-11T10:15:53.448Z,22.25
2022-10-11T10:18:24.879Z,23.44
2022-10-11T10:20:54.918Z,23.58
2022-10-11T10:23:27.506Z,24.01
2022-10-11T10:26:17.466Z,25.14
2022-10-11T10:29:06.014Z,25.39
2022-10-11T10:31:55.246Z,24.36
2022-10-11T10:34:30.790Z,25.25
2022-10-11T10:37:04.785Z,25.43
2022-10-11T10:39:41.972Z,25.22
2022-10-11T10:42:16.314Z,25.17
2022-10-11T10:44:47.180Z,25.82
2022-10-11T10:47:25.398Z,25.84
2022-10-11T10:50:03.369Z,26.26
2022-10-11T10:52:56.392Z,26.04
2022-10-11T10:55:32.451Z,25.63
2022-10-11T10:58:09.545Z,26.16
2022-10-11T11:00:44.313Z,25.76
2022-10-11T11:03:22.738Z,26.90
2022-10-11T11:05:59.384Z,26.23
2022-10-11T11:08:42.070Z,26.55
2022-10-11T11:11:29.460Z,27.30
2022-10-11T11:14:05.035Z,26.23
2022-10-11T11:16:39.839Z,26.95
2022-10-11T11:19:14.441Z,26.61
2022-10-11T11:21:49.228Z,25.48
2022-10-11T11:24:29.133Z,25.96
2022-10-11T11:27:02.526Z,26.57
2022-10-11T11:29:50.747Z,26.82
2022-10-11T11:32:34.215Z,27.47
2022-10-11T11:35:06.894Z,27.18
2022-10-11T11:37:38.299Z,26.82
2022-10-11T11:40:15.348Z,27.25
2022-10-11T11:42:48.381Z,27.30
2022-10-11T11:45:22.441Z,27.00
2022-10-11T11:48:01.890Z,27.06
2022-10-11T11:50:35.859Z,26.41
2022-10-11T11:53:09.070Z,26.52
2022-10-11T11:55:48.146Z,26.47
2022-10-11T11:58:27.886Z,27.10
2022-10-11T12:01:12.569Z,26.16
2022-10-11T12:03:46.605Z,26.53
2022-10-11T12:06:22.962Z,27.01
2022-10-11T12:09:01.798Z,25.59
2022-10-11T12:11:40.680Z,25.54
2022-10-11T12:14:34.029Z,25.29
2022-10-11T12:17:17.210Z,25.11
2022-10-11T12:20:04.517Z,25.22
2022-10-11T12:22:52.642Z,25.64
2022-10-11T12:25:40.137Z,24.12
2022-10-11T12:28:42.200Z,24.79
2022-10-11T12:31:26.011Z,25.24
2022-10-11T12:34:20.181Z,25.10
2022-10-11T12:36:50.619Z,25.29
2022-10-11T12:39:51.530Z,25.46
2022-10-11T12:42:27.027Z,24.79
2022-10-11T12:45:32.135Z,24.70
2022-10-11T12:48:14.937Z,24.02
2022-10-11T12:51:00.757Z,24.93
2022-10-11T12:53:50.592Z,25.43
2022-10-11T12:56:38.733Z,24.92
2022-10-11T12:59:07.475Z,24.81
2022-10-11T13:01:37.896Z,25.12
2022-10-11T13:04:09.315Z,24.58
2022-10-11T13:06:46.915Z,24.19
2022-10-11T13:09:22.052Z,24.77
2022-10-11T13:11:53.549Z,25.06
2022-10-11T13:14:23.301Z,25.28
2022-10-11T13:16:59.995Z,24.67
2022-10-11T13:19:29.608Z,23.26
2022-10-11T13:22:05.343Z,23.96
2022-10-11T13:24:38.636Z,25.06
2022-10-11T13:27:08.807Z,24.36
2022-10-11T13:29:40.340Z,24.70
2022-10-11T13:32:14.525Z,24.41
2022-10-11T13:34:47.060Z,23.83
2022-10-11T13:37:20.662Z,23.36
2022-10-11T13:39:51.247Z,23.22
2022-10-11T13:42:20.981Z,22.27
2022-10-11T13:44:49.686Z,22.16
2022-10-11T13:47:22.045Z,22.23
2022-10-11T13:50:03.724Z,22.91
2022-10-11T13:52:33.702Z,23.56
2022-10-11T13:55:13.506Z,23.52
2022-10-11T13:57:45.087Z,22.74
2022-10-11T14:00:29.277Z,22.27
2022-10-11T14:03:00.794Z,22.11
2022-10-11T14:05:35.411Z,22.01
2022-10-11T14:08:08.512Z,21.88
2022-10-11T14:10:37.121Z,21.43
2022-10-11T14:13:22.590Z,21.37
2022-10-11T14:16:00.639Z,20.98
2022-10-11T14:18:43.617Z,19.73
2022-10-11T14:21:30.523Z,19.07
2022-10-11T14:24:02.356Z,18.11
2022-10-11T14:26:34.268Z,17.49
2022-10-11T14:29:05.766Z,16.93
2022-10-11T14:31:39.186Z,16.59
2022-10-11T14:34:14.732Z,15.97
2022-10-11T14:36:51.449Z,15.76
2022-10-11T14:39:23.289Z,15.64
2022-10-11T14:41:52.831Z,15.50
2022-10-11T14:44:22.885Z,15.36
2022-10-11T14:46:54.497Z,15.22
2022-10-11T14:49:27.658Z,15.16
2022-10-11T14:51:58.144Z,15.07
2022-10-11T14:54:30.979Z,14.80
2022-10-11T14:57:01.159Z,14.70
2022-10-11T14:59:34.489Z,14.74
2022-10-11T15:02:04.586Z,14.62
2022-10-11T15:04:33.310Z,14.38
2022-10-11T15:07:02.211Z,14.21
2022-10-11T15:09:32.325Z,14.09
2022-10-11T15:12:00.761Z,13.97
2022-10-11T15:14:29.108Z,13.86
2022-10-11T15:16:57.809Z,13.88
2022-10-11T15:19:27.234Z,13.83
2022-10-11T15:21:55.707Z,13.77
2022-10-11T15:24:24.062Z,13.71
2022-10-11T15:26:54.025Z,13.57
2022-10-11T15:29:24.123Z,13.45
2022-10-11T15:31:52.735Z,13.38
2022-10-11T15:34:21.564Z,13.27
2022-10-11T15:36:50.187Z,13.16
2022-10-11T15:39:25.752Z,13.06
2022-10-11T15:42:10.998Z,12.95
2022-10-11T15:44:39.610Z,12.78
2022-10-11T15:47:08.034Z,12.75
2022-10-11T15:49:36.545Z,12.74
2022-10-11T15:52:04.868Z,12.70
2022-10-11T15:54:33.451Z,12.62
2022-10-11T15:57:01.905Z,12.61
2022-10-11T15:59:31.817Z,12.56
2022-10-11T16:02:00.499Z,12.54
2022-10-11T16:04:29.061Z,12.46
2022-10-11T16:06:58.173Z,12.33
2022-10-11T16:09:26.758Z,12.32
2022-10-11T16:11:55.111Z,12.26
2022-10-11T16:14:23.457Z,12.16
2022-10-11T16:16:53.263Z,12.11
2022-10-11T16:19:21.732Z,11.95
2022-10-11T16:21:50.185Z,11.86
2022-10-11T16:24:21.143Z,11.80
2022-10-11T16:26:49.487Z,11.61
2022-10-11T16:29:17.879Z,11.55
2022-10-11T16:31:46.324Z,11.44
2022-10-11T16:34:16.243Z,11.34
2022-10-11T16:36:45.816Z,11.28
2022-10-11T16:39:15.685Z,11.22
2022-10-11T16:41:44.765Z,11.10
2022-10-11T16:44:14.707Z,11.00
2022-10-11T16:46:43.924Z,10.88
2022-10-11T16:49:12.345Z,10.87
2022-10-11T16:51:42.400Z,10.75
2022-10-11T16:54:10.957Z,10.58
2022-10-11T16:56:40.241Z,10.47
2022-10-11T16:59:09.115Z,10.32
2022-10-11T17:01:37.921Z,10.23
2022-10-11T17:04:07.046Z,10.23
2022-10-11T17:06:35.406Z,10.16
2022-10-11T17:09:05.564Z,10.11
2022-10-11T17:11:34.544Z,9.99
2022-10-11T17:14:03.387Z,9.86
2022-10-11T17:16:31.887Z,9.76
2022-10-11T17:19:00.325Z,9.67
2022-10-11T17:21:29.126Z,9.66
2022-10-11T17:23:57.528Z,9.55
2022-10-11T17:26:28.287Z,9.49
2022-10-11T17:28:58.188Z,9.44
2022-10-11T17:31:30.390Z,9.43
2022-10-11T17:34:00.116Z,9.33
2022-10-11T17:36:31.837Z,9.24
2022-10-11T17:39:02.466Z,9.03
2022-10-11T17:41:32.559Z,8.79
2022-10-11T17:44:02.930Z,8.62
2022-10-11T17:46:32.834Z,8.44
2022-10-11T17:49:02.139Z,8.31
2022-10-11T17:51:30.693Z,8.14
2022-10-11T17:53:59.079Z,7.93
2022-10-11T17:56:33.831Z,7.82
2022-10-11T17:59:07.650Z,7.78
2022-10-11T18:01:36.261Z,7.68
2022-10-11T18:04:06.082Z,7.63
2022-10-11T18:06:39.771Z,7.53
2022-10-11T18:09:08.293Z,7.42
2022-10-11T18:11:36.728Z,7.36
2022-10-11T18:14:06.622Z,7.16
2022-10-11T18:16:37.483Z,7.03
2022-10-11T18:19:08.910Z,6.91
2022-10-11T18:21:38.280Z,6.87
2022-10-11T18:24:10.748Z,6.75
2022-10-11T18:26:39.804Z,6.63
2022-10-11T18:29:10.758Z,6.57
2022-10-11T18:31:39.320Z,6.51
2022-10-11T18:34:10.754Z,6.49
2022-10-11T18:36:39.749Z,6.39
2022-10-11T18:39:10.138Z,6.31
2022-10-11T18:41:42.108Z,6.25
2022-10-11T18:44:14.903Z,6.14
2022-10-11T18:46:44.161Z,6.07
2022-10-11T18:49:13.363Z,5.93
2022-10-11T18:51:43.177Z,5.88
2022-10-11T18:54:15.409Z,5.81
2022-10-11T18:56:47.070Z,5.76
2022-10-11T18:59:17.173Z,5.78
2022-10-11T19:01:46.182Z,5.63
2022-10-11T19:04:16.751Z,5.54
2022-10-11T19:06:48.137Z,5.50
2022-10-11T19:09:21.496Z,5.36
2022-10-11T19:11:50.661Z,5.30
2022-10-11T19:14:22.171Z,5.32
2022-10-11T19:16:52.115Z,5.27
2022-10-11T19:19:22.156Z,5.36
2022-10-11T19:21:51.202Z,5.32
2022-10-11T19:24:21.833Z,5.22
2022-10-11T19:26:50.394Z,5.18
2022-10-11T19:29:22.320Z,5.06
2022-10-11T19:31:52.904Z,4.89
2022-10-11T19:34:22.187Z,4.83
2022-10-11T19:36:52.677Z,4.76
2022-10-11T19:39:23.100Z,4.72
2022-10-11T19:41:52.251Z,4.73
2022-10-11T19:44:22.132Z,4.68
2022-10-11T19:46:51.945Z,4.53
2022-10-11T19:49:23.777Z,4.51
2022-10-11T19:51:52.749Z,4.69
2022-10-11T19:54:21.149Z,4.72
2022-10-11T19:56:49.756Z,4.65
2022-10-11T19:59:18.477Z,4.53
2022-10-11T20:01:52.773Z,4.50
2022-10-11T20:04:50.527Z,4.50
2022-10-11T20:07:12.513Z,4.46
2022-10-11T20:09:41.389Z,4.43
2022-10-11T20:12:09.774Z,4.37
2022-10-11T20:14:38.180Z,4.22
2022-10-11T20:17:07.900Z,4.17
2022-10-11T20:19:36.316Z,4.21
2022-10-11T20:22:04.700Z,4.10
2022-10-11T20:24:34.397Z,4.08
2022-10-11T20:27:04.782Z,4.05
2022-10-11T20:29:33.276Z,4.04
2022-10-11T20:32:01.655Z,4.08
2022-10-11T20:34:31.468Z,4.04
2022-10-11T20:36:59.784Z,3.94
2022-10-11T20:39:28.332Z,3.83
2022-10-11T20:41:56.710Z,3.84
2022-10-11T20:44:25.112Z,3.86
2022-10-11T20:46:53.461Z,3.85
2022-10-11T20:49:22.447Z,3.90
2022-10-11T20:51:52.361Z,3.82
2022-10-11T20:54:20.746Z,3.82
2022-10-11T20:56:49.138Z,3.68
2022-10-11T20:59:17.508Z,3.71
2022-10-11T21:01:46.002Z,3.65
2022-10-11T21:04:19.284Z,3.77
2022-10-11T21:06:48.775Z,3.75
2022-10-11T21:09:19.014Z,3.66
2022-10-11T21:11:47.383Z,3.62
2022-10-11T21:14:15.798Z,3.57
2022-10-11T21:16:44.400Z,3.56
2022-10-11T21:19:16.162Z,3.52
2022-10-11T21:21:49.691Z,3.47
2022-10-11T21:24:22.530Z,3.43
2022-10-11T21:26:50.986Z,3.51
2022-10-11T21:29:19.585Z,3.45
2022-10-11T21:31:47.919Z,3.33
2022-10-11T21:34:16.538Z,3.20
2022-10-11T21:36:44.871Z,3.22
2022-10-11T21:39:13.235Z,3.18
2022-10-11T21:41:43.092Z,3.15
2022-10-11T21:44:11.683Z,3.13
2022-10-11T21:47:06.659Z,3.12
2022-10-11T21:49:28.764Z,3.18
2022-10-11T21:51:57.347Z,3.26
2022-10-11T21:54:25.744Z,3.29
2022-10-11T21:56:55.601Z,3.13
2022-10-11T21:59:23.953Z,3.01
2022-10-11T22:01:52.479Z,3.11
2022-10-11T22:04:20.977Z,3.11
2022-10-11T22:06:49.387Z,3.06
2022-10-11T22:09:17.781Z,2.97
2022-10-11T22:11:46.182Z,2.97
2022-10-11T22:14:15.870Z,2.94
2022-10-11T22:16:44.324Z,2.87
2022-10-11T22:19:12.689Z,2.95
2022-10-11T22:21:44.908Z,3.06
2022-10-11T22:24:13.915Z,3.05
2022-10-11T22:26:42.452Z,2.99
2022-10-11T22:29:10.764Z,2.95
2022-10-11T22:31:40.494Z,2.87
2022-10-11T22:34:08.970Z,2.91
2022-10-11T22:36:41.136Z,2.93
2022-10-11T22:39:10.068Z,2.86
2022-10-11T22:41:38.917Z,2.81
2022-10-11T22:44:07.651Z,2.77
2022-10-11T22:46:36.027Z,2.70
2022-10-11T22:49:05.944Z,2.62
2022-10-11T22:51:34.345Z,2.62
2022-10-11T22:54:02.723Z,2.64
2022-10-11T22:56:31.381Z,2.63
2022-10-11T22:59:00.365Z,2.78
2022-10-11T23:01:28.741Z,2.84
2022-10-11T23:03:57.142Z,2.73
2022-10-11T23:06:26.979Z,2.70
2022-10-11T23:08:55.408Z,2.68
2022-10-11T23:11:23.752Z,2.73
2022-10-11T23:13:52.022Z,2.72
2022-10-11T23:16:20.474Z,2.68
2022-10-11T23:18:48.855Z,2.70
2022-10-11T23:21:17.420Z,2.68
2022-10-11T23:23:47.149Z,2.67
2022-10-11T23:26:17.358Z,2.62
2022-10-11T23:28:45.947Z,2.50
2022-10-11T23:31:16.569Z,2.41
2022-10-11T23:33:45.384Z,2.39
2022-10-11T23:36:15.974Z,2.48
2022-10-11T23:38:44.538Z,2.40
2022-10-11T23:41:14.322Z,2.44
2022-10-11T23:43:42.649Z,2.39
2022-10-11T23:46:11.217Z,2.47
2022-10-11T23:48:39.524Z,2.38
2022-10-11T23:51:08.171Z,2.34
2022-10-11T23:53:37.382Z,2.41
2022-10-11T23:56:06.662Z,2.35
2022-10-11T23:58:36.379Z,2.31
